createdAt,value
2022-10-19T00:00:44.610Z,102931.06
2022-10-19T00:02:46.173Z,102932.84
2022-10-19T00:04:47.621Z,102934.59
2022-10-19T00:06:49.069Z,102933.75
2022-10-19T00:08:50.484Z,102937.28
2022-10-19T00:10:52.105Z,102932.00
2022-10-19T00:12:53.764Z,102932.00
2022-10-19T00:14:55.307Z,102935.53
2022-10-19T00:16:58.110Z,102926.72
2022-10-19T00:19:01.390Z,102926.72
2022-10-19T00:21:09.234Z,102932.91
2022-10-19T00:23:10.694Z,102933.78
2022-10-19T00:25:12.137Z,102933.78
2022-10-19T00:27:13.623Z,102933.78
2022-10-19T00:29:16.127Z,102922.31
2022-10-19T00:31:18.089Z,102924.09
2022-10-19T00:33:22.305Z,102918.78
2022-10-19T00:35:23.746Z,102926.72
2022-10-19T00:37:25.183Z,102933.78
2022-10-19T00:39:26.654Z,102928.50
2022-10-19T00:41:31.349Z,102931.13
2022-10-19T00:43:32.834Z,102930.25
2022-10-19T00:45:34.271Z,102939.09
2022-10-19T00:47:35.722Z,102939.09
2022-10-19T00:49:42.521Z,102939.09
2022-10-19T00:51:47.756Z,102939.09
2022-10-19T00:53:49.279Z,102939.97
2022-10-19T00:55:50.967Z,102938.19
2022-10-19T00:57:52.595Z,102942.59
2022-10-19T00:59:54.983Z,102928.50
2022-10-19T01:01:56.573Z,102933.78
2022-10-19T01:03:58.529Z,102929.38
2022-10-19T01:06:01.076Z,102924.09
2022-10-19T01:08:02.934Z,102917.91
2022-10-19T01:10:04.989Z,102926.75
2022-10-19T01:12:09.497Z,102928.50
2022-10-19T01:14:32.921Z,102925.84
2022-10-19T01:16:51.428Z,102929.38
2022-10-19T01:19:23.990Z,102914.38
2022-10-19T01:21:29.134Z,102931.13
2022-10-19T01:23:33.447Z,102927.59
2022-10-19T01:25:59.316Z,102914.38
2022-10-19T01:28:19.118Z,102917.91
2022-10-19T01:30:26.978Z,102918.78
2022-10-19T01:32:55.589Z,102915.25
2022-10-19T01:35:26.078Z,102929.38
2022-10-19T01:37:35.790Z,102924.97
2022-10-19T01:39:52.537Z,102924.09
2022-10-19T01:42:06.209Z,102932.91
2022-10-19T01:44:27.972Z,102932.03
2022-10-19T01:46:38.114Z,102928.50
2022-10-19T01:48:45.346Z,102925.84
2022-10-19T01:50:58.845Z,102926.75
2022-10-19T01:53:00.873Z,102925.84
2022-10-19T01:55:03.641Z,102928.50
2022-10-19T01:57:08.597Z,102919.69
2022-10-19T01:59:12.273Z,102920.56
2022-10-19T02:01:19.421Z,102919.69
2022-10-19T02:03:21.463Z,102913.50
2022-10-19T02:05:28.366Z,102916.16
2022-10-19T02:07:30.577Z,102908.22
2022-10-19T02:09:32.057Z,102908.22
2022-10-19T02:11:35.576Z,102908.22
2022-10-19T02:13:39.388Z,102907.34
2022-10-19T02:15:46.639Z,102907.34
2022-10-19T02:17:52.039Z,102920.56
2022-10-19T02:19:54.235Z,102916.16
2022-10-19T02:21:56.440Z,102919.69
2022-10-19T02:23:57.856Z,102918.81
2022-10-19T02:25:59.628Z,102914.41
2022-10-19T02:28:02.836Z,102911.75
2022-10-19T02:30:04.761Z,102905.56
2022-10-19T02:32:07.283Z,102909.09
2022-10-19T02:34:09.694Z,102912.63
2022-10-19T02:36:11.297Z,102917.91
2022-10-19T02:38:19.719Z,102910.00
2022-10-19T02:40:22.083Z,102910.88
2022-10-19T02:42:36.349Z,102912.63
2022-10-19T02:45:07.436Z,102913.50
2022-10-19T02:47:17.396Z,102921.44
2022-10-19T02:49:19.636Z,102922.34
2022-10-19T02:51:39.470Z,102926.75
2022-10-19T02:53:40.880Z,102927.63
2022-10-19T02:55:42.803Z,102932.03
2022-10-19T02:57:44.297Z,102932.91
2022-10-19T02:59:46.432Z,102930.28
2022-10-19T03:01:48.098Z,102939.09
2022-10-19T03:03:49.553Z,102942.59
2022-10-19T03:05:50.952Z,102946.13
2022-10-19T03:07:52.415Z,102941.72
2022-10-19T03:09:54.208Z,102944.38
2022-10-19T03:11:56.166Z,102938.19
2022-10-19T03:13:57.624Z,102935.56
2022-10-19T03:16:06.272Z,102936.44
2022-10-19T03:18:07.607Z,102934.66
2022-10-19T03:20:10.171Z,102946.13
2022-10-19T03:22:13.717Z,102946.13
2022-10-19T03:24:15.322Z,102941.72
2022-10-19T03:26:17.601Z,102945.25
2022-10-19T03:28:19.034Z,102944.38
2022-10-19T03:30:20.454Z,102941.72
2022-10-19T03:32:21.911Z,102940.84
2022-10-19T03:34:23.406Z,102950.53
2022-10-19T03:36:32.012Z,102950.53
2022-10-19T03:38:33.433Z,102952.28
2022-10-19T03:40:34.906Z,102954.06
2022-10-19T03:42:36.450Z,102950.53
2022-10-19T03:44:37.899Z,102956.69
2022-10-19T03:46:40.191Z,102951.41
2022-10-19T03:48:42.197Z,102956.69
2022-10-19T03:50:43.650Z,102958.47
2022-10-19T03:52:45.129Z,102958.47
2022-10-19T03:54:49.551Z,102959.34
2022-10-19T03:56:50.977Z,102951.41
2022-10-19T03:58:54.074Z,102959.34
2022-10-19T04:00:55.584Z,102954.06
2022-10-19T04:02:57.025Z,102956.72
2022-10-19T04:04:58.509Z,102954.06
2022-10-19T04:07:00.246Z,102953.19
2022-10-19T04:09:03.619Z,102951.44
2022-10-19T04:11:07.624Z,102956.72
2022-10-19T04:13:09.139Z,102958.47
2022-10-19T04:15:10.770Z,102957.59
2022-10-19T04:17:12.205Z,102958.47
2022-10-19T04:19:15.893Z,102962.00
2022-10-19T04:21:38.075Z,102969.94
2022-10-19T04:23:39.505Z,102959.34
2022-10-19T04:25:40.946Z,102969.94
2022-10-19T04:27:49.890Z,102961.13
2022-10-19T04:29:51.347Z,102964.63
2022-10-19T04:31:52.991Z,102969.94
2022-10-19T04:33:55.112Z,102966.41
2022-10-19T04:36:00.226Z,102966.41
2022-10-19T04:38:01.737Z,102963.78
2022-10-19T04:40:04.636Z,102968.19
2022-10-19T04:42:06.131Z,102968.19
2022-10-19T04:44:08.962Z,102972.59
2022-10-19T04:46:13.930Z,102974.34
2022-10-19T04:48:15.414Z,102981.41
2022-10-19T04:50:17.057Z,102976.13
2022-10-19T04:52:18.472Z,102972.59
2022-10-19T04:54:19.886Z,102979.66
2022-10-19T04:56:23.629Z,102979.66
2022-10-19T04:58:25.214Z,102977.88
2022-10-19T05:00:26.617Z,102979.66
2022-10-19T05:02:28.056Z,102985.81
2022-10-19T05:04:29.536Z,102980.53
2022-10-19T05:06:31.959Z,102984.94
2022-10-19T05:08:33.659Z,102989.34
2022-10-19T05:10:36.397Z,102988.47
2022-10-19T05:12:37.861Z,102991.13
2022-10-19T05:14:42.008Z,102989.34
2022-10-19T05:16:44.427Z,102986.69
2022-10-19T05:19:04.175Z,102978.78
2022-10-19T05:21:08.269Z,102979.66
2022-10-19T05:23:09.732Z,102969.94
2022-10-19T05:25:11.233Z,102979.66
2022-10-19T05:27:12.741Z,102976.13
2022-10-19T05:29:14.651Z,102971.72
2022-10-19T05:31:18.359Z,102972.59
2022-10-19T05:33:19.797Z,102971.72
2022-10-19T05:35:22.622Z,102971.72
2022-10-19T05:37:25.687Z,102969.97
2022-10-19T05:39:27.290Z,102965.56
2022-10-19T05:41:28.841Z,102965.56
2022-10-19T05:43:30.293Z,102971.72
2022-10-19T05:45:31.758Z,102970.84
2022-10-19T05:47:34.246Z,102974.38
2022-10-19T05:49:35.968Z,102966.44
2022-10-19T05:51:37.935Z,102963.78
2022-10-19T05:53:39.944Z,102962.03
2022-10-19T05:55:41.485Z,102966.44
2022-10-19T05:57:42.966Z,102964.66
2022-10-19T05:59:44.432Z,102963.78
2022-10-19T06:01:46.780Z,102959.38
2022-10-19T06:03:52.628Z,102961.16
2022-10-19T06:05:55.208Z,102958.50
2022-10-19T06:07:56.743Z,102963.78
2022-10-19T06:09:58.211Z,102962.91
2022-10-19T06:11:59.659Z,102954.97
2022-10-19T06:14:02.758Z,102963.78
2022-10-19T06:16:05.583Z,102958.50
2022-10-19T06:18:08.310Z,102973.50
2022-10-19T06:20:10.170Z,102965.59
2022-10-19T06:22:11.624Z,102968.25
2022-10-19T06:24:13.184Z,102972.66
2022-10-19T06:26:15.114Z,102982.34
2022-10-19T06:28:16.590Z,102977.94
2022-10-19T06:30:18.057Z,102976.19
2022-10-19T06:32:19.884Z,102982.38
2022-10-19T06:34:21.442Z,102977.09
2022-10-19T06:36:25.362Z,102985.91
2022-10-19T06:38:26.842Z,102985.91
2022-10-19T06:40:28.317Z,102981.50
2022-10-19T06:42:29.833Z,102985.03
2022-10-19T06:44:31.260Z,103000.91
2022-10-19T06:46:33.847Z,102998.28
2022-10-19T06:48:35.591Z,102998.28
2022-10-19T06:50:37.036Z,103002.69
2022-10-19T06:52:40.712Z,102996.50
2022-10-19T06:54:42.144Z,103002.69
2022-10-19T06:56:43.623Z,103002.69
2022-10-19T06:58:45.590Z,102996.50
2022-10-19T07:00:57.685Z,102997.38
2022-10-19T07:02:59.550Z,102996.50
2022-10-19T07:05:06.073Z,103008.88
2022-10-19T07:07:08.696Z,102998.28
2022-10-19T07:09:10.177Z,103000.91
2022-10-19T07:11:15.945Z,103005.34
2022-10-19T07:13:17.430Z,103003.56
2022-10-19T07:15:18.889Z,103000.03
2022-10-19T07:17:20.318Z,103008.88
2022-10-19T07:19:22.504Z,103007.97
2022-10-19T07:21:24.003Z,103010.63
2022-10-19T07:23:27.119Z,103014.16
2022-10-19T07:25:30.111Z,103016.81
2022-10-19T07:27:37.395Z,103020.34
2022-10-19T07:29:39.210Z,103027.41
2022-10-19T07:31:41.582Z,103025.63
2022-10-19T07:33:43.098Z,103027.44
2022-10-19T07:35:44.557Z,103029.16
2022-10-19T07:37:46.004Z,103025.66
2022-10-19T07:39:47.411Z,103020.38
2022-10-19T07:41:48.883Z,103028.31
2022-10-19T07:43:51.682Z,103023.91
2022-10-19T07:46:01.574Z,103023.91
2022-10-19T07:48:02.997Z,103031.84
2022-10-19T07:50:04.832Z,103027.44
2022-10-19T07:52:06.271Z,103020.34
2022-10-19T07:54:08.493Z,103022.13
2022-10-19T07:56:15.745Z,103025.66
2022-10-19T07:58:17.183Z,103036.25
2022-10-19T08:00:18.629Z,103032.72
2022-10-19T08:02:20.364Z,103030.94
2022-10-19T08:06:43.327Z,103037.13
2022-10-19T08:08:46.404Z,103029.16
2022-10-19T08:10:47.871Z,103025.63
2022-10-19T08:12:49.299Z,103025.63
2022-10-19T08:14:50.733Z,103033.59
2022-10-19T08:16:52.145Z,103029.19
2022-10-19T08:18:58.025Z,103030.94
2022-10-19T08:21:02.434Z,103041.53
2022-10-19T08:23:03.896Z,103042.41
2022-10-19T08:25:06.158Z,103043.28
2022-10-19T08:27:07.560Z,103043.28
2022-10-19T08:29:15.297Z,103036.22
2022-10-19T08:31:19.670Z,103042.41
2022-10-19T08:33:21.121Z,103036.22
2022-10-19T08:35:22.596Z,103033.56
2022-10-19T08:37:40.372Z,103037.09
2022-10-19T08:39:45.404Z,103042.41
2022-10-19T08:41:49.741Z,103037.09
2022-10-19T08:44:12.749Z,103040.66
2022-10-19T08:46:23.497Z,103031.81
2022-10-19T08:48:29.308Z,103031.81
2022-10-19T08:50:39.438Z,103034.47
2022-10-19T08:52:43.229Z,103038.00
2022-10-19T08:54:55.480Z,103046.81
2022-10-19T08:57:21.053Z,103048.56
2022-10-19T08:59:44.934Z,103047.69
2022-10-19T09:02:10.520Z,103052.09
2022-10-19T09:04:22.138Z,103050.31
2022-10-19T09:06:27.247Z,103054.72
2022-10-19T09:08:28.980Z,103045.88
2022-10-19T09:10:35.682Z,103039.69
2022-10-19T09:12:55.129Z,103052.94
2022-10-19T09:15:03.773Z,103039.63
2022-10-19T09:17:17.036Z,103034.34
2022-10-19T09:19:25.542Z,103034.34
2022-10-19T09:21:46.092Z,103030.78
2022-10-19T09:23:55.316Z,103028.97
2022-10-19T09:25:57.760Z,103029.84
2022-10-19T09:28:16.818Z,103030.69
2022-10-19T09:30:21.136Z,103022.75
2022-10-19T09:32:29.230Z,103034.25
2022-10-19T09:34:36.580Z,103034.22
2022-10-19T09:36:50.439Z,103030.72
2022-10-19T09:38:52.381Z,103027.16
2022-10-19T09:40:53.836Z,103020.06
2022-10-19T09:42:59.511Z,103027.09
2022-10-19T09:45:11.833Z,103026.19
2022-10-19T09:47:33.314Z,103024.41
2022-10-19T09:49:43.445Z,103027.09
2022-10-19T09:51:50.486Z,103020.91
2022-10-19T09:53:54.530Z,103020.88
2022-10-19T09:56:07.780Z,103024.41
2022-10-19T09:58:17.119Z,103023.50
2022-10-19T10:00:21.289Z,103024.38
2022-10-19T10:02:30.192Z,103023.44
2022-10-19T10:04:31.876Z,103025.25
2022-10-19T10:06:34.841Z,103028.78
2022-10-19T10:08:39.433Z,103022.56
2022-10-19T10:10:49.102Z,103022.56
2022-10-19T10:12:52.900Z,103024.34
2022-10-19T10:14:56.334Z,103023.47
2022-10-19T10:17:03.400Z,103022.56
2022-10-19T10:19:11.757Z,103011.09
2022-10-19T10:21:33.664Z,103008.44
2022-10-19T10:23:36.640Z,103007.50
2022-10-19T10:25:38.347Z,103008.31
2022-10-19T10:27:40.263Z,103015.28
2022-10-19T10:32:20.201Z,103011.63
2022-10-19T10:34:58.353Z,103009.78
2022-10-19T10:37:04.424Z,103008.00
2022-10-19T10:39:08.341Z,103016.00
2022-10-19T10:41:12.057Z,103009.81
2022-10-19T10:43:18.044Z,103015.97
2022-10-19T10:45:34.560Z,103016.84
2022-10-19T10:47:39.301Z,103016.84
2022-10-19T10:49:42.644Z,103013.31
2022-10-19T10:51:49.276Z,103022.75
2022-10-19T10:54:16.411Z,103021.81
2022-10-19T10:56:29.742Z,103014.25
2022-10-19T10:58:44.335Z,103007.97
2022-10-19T11:00:48.045Z,103011.34
2022-10-19T11:03:26.547Z,103016.47
2022-10-19T11:05:37.483Z,102991.84
2022-10-19T11:07:44.909Z,102987.75
2022-10-19T11:10:03.360Z,102980.16
2022-10-19T11:12:09.061Z,102973.34
2022-10-19T11:14:41.498Z,102984.22
2022-10-19T11:16:45.989Z,102988.50
2022-10-19T11:18:56.485Z,102974.03
2022-10-19T11:21:13.002Z,102971.88
2022-10-19T11:23:26.908Z,102969.97
2022-10-19T11:25:43.893Z,102965.19
2022-10-19T11:28:17.272Z,102966.81
2022-10-19T11:30:20.790Z,102966.53
2022-10-19T11:32:25.216Z,102968.63
2022-10-19T11:34:32.760Z,102956.97
2022-10-19T11:36:50.025Z,102957.34
2022-10-19T11:39:21.751Z,102957.41
2022-10-19T11:41:37.590Z,102941.09
2022-10-19T11:43:50.339Z,102936.88
2022-10-19T11:46:13.691Z,102935.09
2022-10-19T11:48:30.850Z,102933.34
2022-10-19T11:51:04.123Z,102918.47
2022-10-19T11:53:48.537Z,102921.34
2022-10-19T11:56:07.420Z,102916.22
2022-10-19T11:58:35.296Z,102918.03
2022-10-19T12:00:50.326Z,102915.25
2022-10-19T12:03:18.031Z,102914.19
2022-10-19T12:06:00.857Z,102923.16
2022-10-19T12:08:23.283Z,102927.59
2022-10-19T12:10:32.654Z,102922.53
2022-10-19T12:12:38.894Z,102910.03
2022-10-19T12:14:43.756Z,102917.63
2022-10-19T12:16:53.368Z,102917.03
2022-10-19T12:19:00.489Z,102907.13
2022-10-19T12:21:14.682Z,102896.31
2022-10-19T12:23:38.414Z,102889.09
2022-10-19T12:25:43.849Z,102890.03
2022-10-19T12:27:47.719Z,102886.59
2022-10-19T12:29:50.013Z,102883.38
2022-10-19T12:31:53.760Z,102882.84
2022-10-19T12:34:13.161Z,102891.16
2022-10-19T12:36:32.674Z,102891.34
2022-10-19T12:39:00.210Z,102878.94
2022-10-19T12:41:27.352Z,102888.50
2022-10-19T12:43:43.437Z,102881.41
2022-10-19T12:46:22.226Z,102875.19
2022-10-19T12:48:24.663Z,102885.84
2022-10-19T12:50:47.855Z,102880.63
2022-10-19T12:52:52.233Z,102875.31
2022-10-19T12:54:53.699Z,102872.75
2022-10-19T12:56:58.949Z,102869.59
2022-10-19T12:59:01.684Z,102867.03
2022-10-19T13:01:05.954Z,102874.28
2022-10-19T13:03:13.447Z,102862.72
2022-10-19T13:05:22.987Z,102863.50
2022-10-19T13:07:26.590Z,102866.19
2022-10-19T13:09:38.659Z,102853.81
2022-10-19T13:12:19.389Z,102857.31
2022-10-19T13:14:49.896Z,102852.78
2022-10-19T13:17:00.285Z,102852.75
2022-10-19T13:19:13.975Z,102852.81
2022-10-19T13:21:53.917Z,102853.97
2022-10-19T13:24:23.946Z,102852.34
2022-10-19T13:26:33.858Z,102848.94
2022-10-19T13:28:37.444Z,102841.06
2022-10-19T13:30:42.253Z,102846.47
2022-10-19T13:32:45.112Z,102843.09
2022-10-19T13:34:47.233Z,102843.06
2022-10-19T13:37:03.099Z,102830.63
2022-10-19T13:39:10.158Z,102836.84
2022-10-19T13:41:16.183Z,102828.94
2022-10-19T13:43:21.067Z,102833.38
2022-10-19T13:45:24.587Z,102827.19
2022-10-19T13:47:32.827Z,102829.75
2022-10-19T13:49:51.974Z,102831.44
2022-10-19T13:52:18.474Z,102819.09
2022-10-19T13:54:41.866Z,102825.31
2022-10-19T13:56:49.454Z,102821.78
2022-10-19T13:59:10.065Z,102811.91
2022-10-19T14:01:47.058Z,102813.72
2022-10-19T14:04:00.550Z,102809.31
2022-10-19T14:06:36.185Z,102806.69
2022-10-19T14:08:56.469Z,102808.53
2022-10-19T14:11:12.386Z,102806.81
2022-10-19T14:13:15.482Z,102803.28
2022-10-19T14:15:27.873Z,102807.72
2022-10-19T14:17:34.171Z,102802.44
2022-10-19T14:20:02.626Z,102801.63
2022-10-19T14:22:37.936Z,102792.78
2022-10-19T14:24:39.633Z,102792.78
2022-10-19T14:26:41.265Z,102785.63
2022-10-19T14:28:43.535Z,102787.34
2022-10-19T14:30:53.804Z,102795.34
2022-10-19T14:32:59.394Z,102791.88
2022-10-19T14:35:16.045Z,102790.09
2022-10-19T14:37:21.221Z,102792.72
2022-10-19T14:39:30.611Z,102780.34
2022-10-19T14:41:36.157Z,102778.56
2022-10-19T14:43:37.875Z,102776.81
2022-10-19T14:45:39.337Z,102772.28
2022-10-19T14:47:53.190Z,102766.97
2022-10-19T14:49:54.672Z,102764.28
2022-10-19T14:52:03.128Z,102764.28
2022-10-19T14:54:12.023Z,102764.41
2022-10-19T14:56:48.608Z,102767.09
2022-10-19T14:59:07.524Z,102763.53
2022-10-19T15:01:10.447Z,102759.19
2022-10-19T15:03:20.557Z,102759.31
2022-10-19T15:05:26.255Z,102754.13
2022-10-19T15:07:36.470Z,102755.03
2022-10-19T15:09:48.354Z,102754.22
2022-10-19T15:11:51.080Z,102744.56
2022-10-19T15:14:02.380Z,102747.25
2022-10-19T15:16:04.008Z,102750.00
2022-10-19T15:18:06.918Z,102750.91
2022-10-19T15:20:24.582Z,102750.84
2022-10-19T15:22:32.327Z,102743.78
2022-10-19T15:24:34.214Z,102750.88
2022-10-19T15:26:35.747Z,102742.97
2022-10-19T15:28:41.561Z,102738.53
2022-10-19T15:30:43.371Z,102743.84
2022-10-19T15:32:47.841Z,102740.34
2022-10-19T15:34:49.347Z,102728.00
2022-10-19T15:36:58.978Z,102730.72
2022-10-19T15:39:18.097Z,102736.13
2022-10-19T15:41:34.817Z,102734.41
2022-10-19T15:43:46.031Z,102738.84
2022-10-19T15:45:47.506Z,102733.53
2022-10-19T15:48:16.183Z,102736.25
2022-10-19T15:50:45.112Z,102741.63
2022-10-19T15:52:46.520Z,102738.13
2022-10-19T15:54:49.434Z,102736.38
2022-10-19T15:56:52.261Z,102735.53
2022-10-19T15:58:56.456Z,102735.53
2022-10-19T16:00:57.877Z,102736.53
2022-10-19T16:02:59.601Z,102736.53
2022-10-19T16:05:01.048Z,102737.47
2022-10-19T16:07:02.570Z,102734.88
2022-10-19T16:09:04.458Z,102730.50
2022-10-19T16:11:06.010Z,102738.47
2022-10-19T16:13:07.457Z,102731.41
2022-10-19T16:15:13.008Z,102737.59
2022-10-19T16:17:15.198Z,102731.47
2022-10-19T16:19:16.684Z,102735.03
2022-10-19T16:21:20.450Z,102732.38
2022-10-19T16:23:22.010Z,102731.53
2022-10-19T16:25:23.664Z,102727.97
2022-10-19T16:27:25.115Z,102735.09
2022-10-19T16:29:28.919Z,102728.94
2022-10-19T16:31:31.568Z,102729.00
2022-10-19T16:33:33.408Z,102736.09
2022-10-19T16:35:37.289Z,102729.94
2022-10-19T16:37:38.761Z,102726.44
2022-10-19T16:39:40.227Z,102725.59
2022-10-19T16:41:41.657Z,102722.09
2022-10-19T16:43:43.520Z,102724.78
2022-10-19T16:45:45.042Z,102723.91
2022-10-19T16:47:50.130Z,102720.41
2022-10-19T16:50:00.041Z,102719.50
2022-10-19T16:52:01.739Z,102716.84
2022-10-19T16:54:05.771Z,102717.72
2022-10-19T16:56:12.655Z,102715.09
2022-10-19T16:58:14.122Z,102720.41
2022-10-19T17:00:15.643Z,102725.72
2022-10-19T17:02:17.476Z,102726.59
2022-10-19T17:04:19.019Z,102725.72
2022-10-19T17:06:21.340Z,102723.97
2022-10-19T17:08:36.470Z,102723.97
2022-10-19T17:10:38.712Z,102724.84
2022-10-19T17:12:40.829Z,102721.31
2022-10-19T17:14:42.464Z,102729.25
2022-10-19T17:16:43.993Z,102729.25
2022-10-19T17:18:45.989Z,102727.50
2022-10-19T17:20:47.416Z,102726.63
2022-10-19T17:22:51.828Z,102723.97
2022-10-19T17:24:55.399Z,102722.22
2022-10-19T17:26:57.106Z,102731.91
2022-10-19T17:29:00.066Z,102732.78
2022-10-19T17:31:07.274Z,102726.59
2022-10-19T17:33:08.711Z,102735.41
2022-10-19T17:35:10.272Z,102733.63
2022-10-19T17:37:11.982Z,102728.34
2022-10-19T17:39:25.542Z,102730.97
2022-10-19T17:41:31.065Z,102738.88
2022-10-19T17:43:32.920Z,102730.09
2022-10-19T17:45:34.656Z,102730.06
2022-10-19T17:47:36.371Z,102730.06
2022-10-19T17:49:38.343Z,102731.81
2022-10-19T17:51:40.523Z,102743.22
2022-10-19T17:53:43.780Z,102738.81
2022-10-19T17:55:45.255Z,102743.19
2022-10-19T17:57:46.787Z,102742.31
2022-10-19T17:59:52.817Z,102743.19
2022-10-19T18:01:54.789Z,102735.25
2022-10-19T18:03:56.905Z,102743.16
2022-10-19T18:06:04.610Z,102730.84
2022-10-19T18:08:08.388Z,102735.19
2022-10-19T18:10:10.208Z,102739.59
2022-10-19T18:12:13.339Z,102735.19
2022-10-19T18:14:14.868Z,102743.09
2022-10-19T18:16:24.312Z,102732.53
2022-10-19T18:18:26.103Z,102723.75
2022-10-19T18:20:27.541Z,102727.25
2022-10-19T18:22:29.053Z,102736.06
2022-10-19T18:24:30.562Z,102727.25
2022-10-19T18:26:34.152Z,102729.00
2022-10-19T18:28:35.813Z,102735.16
2022-10-19T18:30:38.444Z,102734.28
2022-10-19T18:32:39.962Z,102734.28
2022-10-19T18:34:41.449Z,102742.19
2022-10-19T18:36:43.042Z,102738.69
2022-10-19T18:38:44.790Z,102736.91
2022-10-19T18:40:46.269Z,102740.44
2022-10-19T18:42:47.756Z,102739.53
2022-10-19T18:44:49.295Z,102730.72
2022-10-19T18:46:50.766Z,102727.22
2022-10-19T18:48:53.575Z,102721.00
2022-10-19T18:50:55.967Z,102724.50
2022-10-19T18:52:57.388Z,102724.50
2022-10-19T18:54:58.796Z,102714.81
2022-10-19T18:57:00.322Z,102709.56
2022-10-19T18:59:02.208Z,102701.63
2022-10-19T19:01:10.812Z,102700.75
2022-10-19T19:03:12.312Z,102693.69
2022-10-19T19:05:13.775Z,102690.19
2022-10-19T19:07:15.227Z,102688.44
2022-10-19T19:09:18.780Z,102675.25
2022-10-19T19:11:25.894Z,102678.75
2022-10-19T19:13:27.747Z,102677.88
2022-10-19T19:15:29.182Z,102674.34
2022-10-19T19:17:30.639Z,102673.47
2022-10-19T19:19:32.228Z,102669.94
2022-10-19T19:21:35.590Z,102665.53
2022-10-19T19:23:37.015Z,102655.84
2022-10-19T19:25:40.312Z,102654.09
2022-10-19T19:27:41.726Z,102647.94
2022-10-19T19:29:43.283Z,102647.94
2022-10-19T19:31:44.946Z,102659.34
2022-10-19T19:33:47.469Z,102655.84
2022-10-19T19:35:50.341Z,102654.06
2022-10-19T19:37:51.758Z,102657.59
2022-10-19T19:39:53.202Z,102645.28
2022-10-19T19:41:54.658Z,102649.66
2022-10-19T19:43:57.907Z,102640.00
2022-10-19T19:46:04.613Z,102647.03
2022-10-19T19:48:10.434Z,102639.13
2022-10-19T19:50:11.847Z,102635.59
2022-10-19T19:52:13.276Z,102637.34
2022-10-19T19:54:15.107Z,102636.47
2022-10-19T19:56:17.851Z,102642.59
2022-10-19T19:58:19.283Z,102645.22
2022-10-19T20:00:22.444Z,102644.34
2022-10-19T20:02:23.872Z,102647.81
2022-10-19T20:04:25.290Z,102646.94
2022-10-19T20:06:26.858Z,102653.09
2022-10-19T20:08:28.360Z,102646.03
2022-10-19T20:10:29.838Z,102641.66
2022-10-19T20:12:31.306Z,102643.41
2022-10-19T20:14:32.729Z,102643.41
2022-10-19T20:16:34.326Z,102639.00
2022-10-19T20:18:36.127Z,102650.44
2022-10-19T20:20:40.111Z,102640.75
2022-10-19T20:22:46.447Z,102648.66
2022-10-19T20:24:47.869Z,102649.53
2022-10-19T20:26:49.286Z,102653.91
2022-10-19T20:28:51.602Z,102646.84
2022-10-19T20:31:05.768Z,102648.59
2022-10-19T20:33:07.211Z,102642.41
2022-10-19T20:35:09.066Z,102643.28
2022-10-19T20:37:10.502Z,102631.88
2022-10-19T20:39:11.949Z,102639.75
2022-10-19T20:41:13.438Z,102639.75
2022-10-19T20:43:15.266Z,102638.00
2022-10-19T20:45:16.774Z,102635.34
2022-10-19T20:47:18.207Z,102627.44
2022-10-19T20:49:19.664Z,102623.06
2022-10-19T20:51:31.694Z,102620.41
2022-10-19T20:53:33.891Z,102628.31
2022-10-19T20:55:35.345Z,102634.44
2022-10-19T20:57:36.785Z,102617.75
2022-10-19T20:59:39.542Z,102616.00
2022-10-19T21:01:42.404Z,102610.72
2022-10-19T21:03:49.850Z,102610.72
2022-10-19T21:05:51.284Z,102608.97
2022-10-19T21:07:53.160Z,102608.97
2022-10-19T21:09:54.677Z,102601.94
2022-10-19T21:11:56.188Z,102595.78
2022-10-19T21:14:01.764Z,102599.31
2022-10-19T21:16:17.638Z,102594.03
2022-10-19T21:18:19.140Z,102591.38
2022-10-19T21:20:20.564Z,102586.13
2022-10-19T21:22:22.026Z,102592.25
2022-10-19T21:24:26.691Z,102586.94
2022-10-19T21:26:28.628Z,102585.19
2022-10-19T21:28:30.041Z,102586.03
2022-10-19T21:30:31.461Z,102584.28
2022-10-19T21:32:33.053Z,102582.53
2022-10-19T21:34:34.476Z,102572.00
2022-10-19T21:36:35.939Z,102573.72
2022-10-19T21:38:37.714Z,102571.97
2022-10-19T21:40:39.122Z,102567.56
2022-10-19T21:42:40.544Z,102570.22
2022-10-19T21:44:41.953Z,102566.69
2022-10-19T21:46:44.413Z,102562.28
2022-10-19T21:48:46.192Z,102573.69
2022-10-19T21:50:48.303Z,102567.53
2022-10-19T21:52:49.720Z,102564.03
2022-10-19T21:54:51.193Z,102559.63
2022-10-19T21:56:53.395Z,102558.75
2022-10-19T21:58:55.447Z,102558.75
2022-10-19T22:01:07.031Z,102546.44
2022-10-19T22:03:09.393Z,102549.94
2022-10-19T22:05:10.820Z,102556.06
2022-10-19T22:07:12.260Z,102545.53
2022-10-19T22:09:20.484Z,102550.78
2022-10-19T22:11:22.500Z,102549.03
2022-10-19T22:13:23.958Z,102544.63
2022-10-19T22:15:25.396Z,102544.63
2022-10-19T22:17:26.821Z,102535.84
2022-10-19T22:19:28.280Z,102532.31
2022-10-19T22:21:31.755Z,102532.31
2022-10-19T22:23:33.220Z,102531.44
2022-10-19T22:25:35.825Z,102519.16
2022-10-19T22:27:37.248Z,102517.38
2022-10-19T22:29:38.702Z,102511.22
2022-10-19T22:31:40.204Z,102512.97
2022-10-19T22:33:41.683Z,102508.59
2022-10-19T22:35:43.146Z,102506.81
2022-10-19T22:37:44.585Z,102507.66
2022-10-19T22:39:46.060Z,102504.13
2022-10-19T22:41:47.740Z,102501.47
2022-10-19T22:43:49.178Z,102497.94
2022-10-19T22:45:50.799Z,102499.69
2022-10-19T22:47:52.247Z,102497.91
2022-10-19T22:49:53.687Z,102493.53
2022-10-19T22:51:55.092Z,102497.00
2022-10-19T22:53:56.530Z,102491.75
2022-10-19T22:55:57.956Z,102498.75
2022-10-19T22:57:59.459Z,102495.25
2022-10-19T23:00:00.905Z,102503.13
2022-10-19T23:02:02.381Z,102494.34
2022-10-19T23:04:04.059Z,102492.59
2022-10-19T23:06:09.510Z,102495.22
2022-10-19T23:08:10.941Z,102493.47
2022-10-19T23:10:12.704Z,102496.97
2022-10-19T23:12:14.172Z,102495.19
2022-10-19T23:14:15.902Z,102493.41
2022-10-19T23:16:17.472Z,102491.59
2022-10-19T23:18:19.548Z,102490.69
2022-10-19T23:20:20.981Z,102482.78
2022-10-19T23:22:22.517Z,102474.91
2022-10-19T23:24:24.286Z,102472.25
2022-10-19T23:26:25.805Z,102471.38
2022-10-19T23:28:27.891Z,102469.56
2022-10-19T23:30:29.300Z,102467.81
2022-10-19T23:32:30.883Z,102467.78
2022-10-19T23:34:32.434Z,102475.66
2022-10-19T23:36:33.897Z,102479.13
2022-10-19T23:38:36.200Z,102473.84
2022-10-19T23:40:37.607Z,102472.94
2022-10-19T23:42:39.092Z,102462.41
2022-10-19T23:44:40.568Z,102458.91
2022-10-19T23:46:42.050Z,102457.16
2022-10-19T23:48:46.563Z,102449.28
2022-10-19T23:51:03.579Z,102444.88
2022-10-19T23:53:05.018Z,102445.75
2022-10-19T23:55:07.181Z,102441.34
2022-10-19T23:57:08.600Z,102439.59
2022-10-19T23:59:10.021Z,102444.81
